PBD9507 UWUU-UWWW
Flight info
| Callsign | PBD9507 |
|---|---|
| Flight time | 0h 53m |
| Altitude | 32000 |
| Route | DCT GAPMA T759 NALUS DCT |
| Aircraft | B738/M-SDE2E3FGHIRWXY/LB1 |
Departure
| Time | 2026-04-22 17:06 |
|---|---|
| Airport | Ufa International Airport (UWUU) |
Arrival
| Time | 2026-04-22 17:59 |
|---|---|
| Airport | Kurumoch International Airport (UWWW) |
| Time | Latitude | Longitude | Altitude | Speed | Heading |
|---|---|---|---|---|---|
| 2026-04-22 16:22 | 54.56364 | 55.88447 | 383 ft | 0 kts | 60° |
| 2026-04-22 16:54 | 54.56361 | 55.88438 | 383 ft | 2 kts | 59° |
| 2026-04-22 16:55 | 54.56354 | 55.88418 | 382 ft | 2 kts | 60° |
| 2026-04-22 16:55 | 54.56347 | 55.88397 | 382 ft | 2 kts | 60° |
| 2026-04-22 16:55 | 54.56342 | 55.88380 | 381 ft | 0 kts | 60° |
| 2026-04-22 16:55 | 54.56334 | 55.88362 | 381 ft | 2 kts | 35° |
| 2026-04-22 16:56 | 54.56320 | 55.88351 | 381 ft | 2 kts | 10° |
| 2026-04-22 16:56 | 54.56305 | 55.88351 | 381 ft | 2 kts | 345° |
| 2026-04-22 16:56 | 54.56298 | 55.88356 | 381 ft | 1 kts | 330° |
| 2026-04-22 16:56 | 54.56293 | 55.88361 | 381 ft | 0 kts | 331° |
| 2026-04-22 16:59 | 54.56292 | 55.88361 | 381 ft | 0 kts | 331° |
| 2026-04-22 16:59 | 54.56337 | 55.88321 | 380 ft | 21 kts | 334° |
| 2026-04-22 16:59 | 54.56416 | 55.88207 | 380 ft | 13 kts | 284° |
| 2026-04-22 17:00 | 54.56392 | 55.88066 | 380 ft | 12 kts | 252° |
| 2026-04-22 17:00 | 54.56311 | 55.87826 | 381 ft | 10 kts | 236° |
| 2026-04-22 17:00 | 54.56279 | 55.87735 | 384 ft | 7 kts | 242° |
| 2026-04-22 17:01 | 54.56259 | 55.87676 | 385 ft | 4 kts | 241° |
| 2026-04-22 17:01 | 54.56232 | 55.87593 | 387 ft | 18 kts | 242° |
| 2026-04-22 17:01 | 54.56166 | 55.87392 | 393 ft | 19 kts | 242° |
| 2026-04-22 17:01 | 54.56081 | 55.87118 | 399 ft | 29 kts | 248° |
| 2026-04-22 17:02 | 54.55986 | 55.86830 | 405 ft | 27 kts | 237° |
| 2026-04-22 17:02 | 54.55884 | 55.86510 | 409 ft | 20 kts | 242° |
| 2026-04-22 17:02 | 54.55859 | 55.86384 | 410 ft | 8 kts | 283° |
| 2026-04-22 17:02 | 54.55906 | 55.86301 | 408 ft | 11 kts | 332° |
| 2026-04-22 17:03 | 54.55986 | 55.86254 | 405 ft | 13 kts | 348° |
| 2026-04-22 17:03 | 54.56069 | 55.86166 | 401 ft | 14 kts | 327° |
| 2026-04-22 17:03 | 54.56182 | 55.86037 | 397 ft | 32 kts | 328° |
| 2026-04-22 17:03 | 54.56433 | 55.85793 | 390 ft | 43 kts | 332° |
| 2026-04-22 17:04 | 54.56613 | 55.85623 | 384 ft | 44 kts | 333° |
| 2026-04-22 17:04 | 54.56961 | 55.85306 | 374 ft | 35 kts | 328° |
| 2026-04-22 17:04 | 54.57134 | 55.85146 | 368 ft | 23 kts | 334° |
| 2026-04-22 17:04 | 54.57248 | 55.85093 | 364 ft | 13 kts | 338° |
| 2026-04-22 17:05 | 54.57259 | 55.85002 | 362 ft | 8 kts | 187° |
| 2026-04-22 17:05 | 54.57213 | 55.85036 | 363 ft | 2 kts | 150° |
| 2026-04-22 17:05 | 54.57152 | 55.85094 | 366 ft | 41 kts | 154° |
| 2026-04-22 17:05 | 54.56640 | 55.85566 | 382 ft | 121 kts | 151° |
| 2026-04-22 17:06 | 54.55724 | 55.86462 | 566 ft | 172 kts | 153° |
| 2026-04-22 17:06 | 54.54705 | 55.87389 | 1466 ft | 163 kts | 155° |
| 2026-04-22 17:06 | 54.53753 | 55.88387 | 2106 ft | 161 kts | 152° |
| 2026-04-22 17:06 | 54.52791 | 55.89465 | 2495 ft | 175 kts | 152° |
| 2026-04-22 17:07 | 54.51725 | 55.90653 | 2842 ft | 188 kts | 152° |
| 2026-04-22 17:07 | 54.50640 | 55.91880 | 3079 ft | 196 kts | 150° |
| 2026-04-22 17:07 | 54.49649 | 55.93505 | 3653 ft | 202 kts | 129° |
| 2026-04-22 17:07 | 54.48969 | 55.95690 | 4311 ft | 215 kts | 118° |
| 2026-04-22 17:08 | 54.48610 | 55.98148 | 5277 ft | 223 kts | 93° |
| 2026-04-22 17:08 | 54.48940 | 56.00744 | 6160 ft | 230 kts | 65° |
| 2026-04-22 17:08 | 54.49788 | 56.02999 | 6919 ft | 220 kts | 41° |
| 2026-04-22 17:08 | 54.50946 | 56.04702 | 7414 ft | 225 kts | 32° |
| 2026-04-22 17:09 | 54.52293 | 56.06150 | 7868 ft | 241 kts | 20° |
| 2026-04-22 17:09 | 54.53816 | 56.07368 | 8897 ft | 245 kts | 18° |
| 2026-04-22 17:09 | 54.54839 | 56.08165 | 9628 ft | 245 kts | 17° |
| 2026-04-22 17:09 | 54.56934 | 56.09812 | 10734 ft | 259 kts | 18° |
| 2026-04-22 17:10 | 54.58606 | 56.11079 | 11400 ft | 269 kts | 12° |
| 2026-04-22 17:10 | 54.60418 | 56.11437 | 12062 ft | 262 kts | 341° |
| 2026-04-22 17:10 | 54.61984 | 56.10126 | 12735 ft | 251 kts | 309° |
| 2026-04-22 17:10 | 54.62961 | 56.07715 | 13413 ft | 250 kts | 288° |
| 2026-04-22 17:11 | 54.63419 | 56.04819 | 14078 ft | 254 kts | 273° |
| 2026-04-22 17:11 | 54.63351 | 56.01782 | 14744 ft | 260 kts | 258° |
| 2026-04-22 17:11 | 54.62812 | 55.98811 | 15416 ft | 268 kts | 248° |
| 2026-04-22 17:11 | 54.62025 | 55.95860 | 16091 ft | 276 kts | 244° |
| 2026-04-22 17:12 | 54.61155 | 55.92859 | 16766 ft | 283 kts | 244° |
| 2026-04-22 17:12 | 54.60287 | 55.89808 | 17436 ft | 289 kts | 244° |
| 2026-04-22 17:12 | 54.59420 | 55.86671 | 18107 ft | 295 kts | 245° |
| 2026-04-22 17:12 | 54.58534 | 55.83447 | 18786 ft | 300 kts | 245° |
| 2026-04-22 17:13 | 54.57651 | 55.80222 | 19470 ft | 305 kts | 244° |
| 2026-04-22 17:13 | 54.56742 | 55.76895 | 20168 ft | 308 kts | 245° |
| 2026-04-22 17:13 | 54.55837 | 55.73570 | 20866 ft | 311 kts | 245° |
| 2026-04-22 17:13 | 54.54917 | 55.70202 | 21570 ft | 312 kts | 245° |
| 2026-04-22 17:14 | 54.54024 | 55.66940 | 22236 ft | 297 kts | 245° |
| 2026-04-22 17:14 | 54.53149 | 55.63750 | 22929 ft | 295 kts | 245° |
| 2026-04-22 17:14 | 54.52284 | 55.60597 | 23610 ft | 294 kts | 244° |
| 2026-04-22 17:14 | 54.51416 | 55.57445 | 24303 ft | 293 kts | 244° |
| 2026-04-22 17:15 | 54.51123 | 55.56382 | 24537 ft | 292 kts | 244° |
| 2026-04-22 17:15 | 54.49699 | 55.51215 | 25612 ft | 286 kts | 244° |
| 2026-04-22 17:15 | 54.48855 | 55.48158 | 26252 ft | 282 kts | 244° |
| 2026-04-22 17:15 | 54.48030 | 55.45171 | 26879 ft | 276 kts | 244° |
| 2026-04-22 17:16 | 54.47223 | 55.42258 | 27516 ft | 269 kts | 244° |
| 2026-04-22 17:16 | 54.46432 | 55.39401 | 28150 ft | 261 kts | 244° |
| 2026-04-22 17:16 | 54.45665 | 55.36634 | 28733 ft | 253 kts | 244° |
| 2026-04-22 17:16 | 54.44906 | 55.33904 | 28868 ft | 262 kts | 243° |
| 2026-04-22 17:17 | 54.44102 | 55.31023 | 28911 ft | 275 kts | 243° |
| 2026-04-22 17:17 | 54.43254 | 55.27990 | 28939 ft | 287 kts | 243° |
| 2026-04-22 17:17 | 54.42382 | 55.24869 | 29171 ft | 292 kts | 243° |
| 2026-04-22 17:17 | 54.41517 | 55.21764 | 29533 ft | 293 kts | 243° |
| 2026-04-22 17:18 | 54.40634 | 55.18597 | 29865 ft | 293 kts | 243° |
| 2026-04-22 17:18 | 54.39778 | 55.15470 | 30177 ft | 294 kts | 245° |
| 2026-04-22 17:18 | 54.39072 | 55.12148 | 30518 ft | 295 kts | 250° |
| 2026-04-22 17:18 | 54.38503 | 55.08826 | 30843 ft | 294 kts | 251° |
| 2026-04-22 17:19 | 54.37391 | 55.02130 | 31402 ft | 290 kts | 251° |
| 2026-04-22 17:19 | 54.36227 | 54.95514 | 31732 ft | 293 kts | 250° |
| 2026-04-22 17:20 | 54.34983 | 54.88691 | 31735 ft | 309 kts | 250° |
| 2026-04-22 17:20 | 54.33655 | 54.81496 | 31738 ft | 325 kts | 250° |
| 2026-04-22 17:21 | 54.31529 | 54.70011 | 31729 ft | 350 kts | 251° |
| 2026-04-22 17:22 | 54.30032 | 54.61962 | 31724 ft | 367 kts | 251° |
| 2026-04-22 17:22 | 54.29252 | 54.57786 | 31727 ft | 375 kts | 251° |
| 2026-04-22 17:22 | 54.27628 | 54.49125 | 31716 ft | 391 kts | 251° |
| 2026-04-22 17:23 | 54.26785 | 54.44647 | 31714 ft | 399 kts | 251° |
| 2026-04-22 17:23 | 54.25048 | 54.35460 | 31714 ft | 416 kts | 251° |
| 2026-04-22 17:23 | 54.24147 | 54.30712 | 31714 ft | 422 kts | 250° |
| 2026-04-22 17:24 | 54.22356 | 54.21282 | 31715 ft | 420 kts | 250° |
| 2026-04-22 17:24 | 54.20552 | 54.11835 | 31727 ft | 420 kts | 250° |
| 2026-04-22 17:25 | 54.18742 | 54.02412 | 31735 ft | 420 kts | 250° |
| 2026-04-22 17:25 | 54.16915 | 53.92948 | 31735 ft | 421 kts | 250° |
| 2026-04-22 17:26 | 54.15078 | 53.83475 | 31736 ft | 419 kts | 250° |
| 2026-04-22 17:26 | 54.13252 | 53.74106 | 31732 ft | 420 kts | 250° |
| 2026-04-22 17:27 | 54.11402 | 53.64661 | 31731 ft | 422 kts | 250° |
| 2026-04-22 17:27 | 54.09549 | 53.55241 | 31737 ft | 421 kts | 250° |
| 2026-04-22 17:28 | 54.07686 | 53.45821 | 31744 ft | 422 kts | 250° |
| 2026-04-22 17:28 | 54.05821 | 53.36431 | 31725 ft | 421 kts | 250° |
| 2026-04-22 17:29 | 54.03946 | 53.27040 | 31729 ft | 420 kts | 249° |
| 2026-04-22 17:29 | 54.02048 | 53.17592 | 31724 ft | 431 kts | 249° |
| 2026-04-22 17:30 | 54.00076 | 53.07841 | 31719 ft | 441 kts | 249° |
| 2026-04-22 17:30 | 53.98082 | 52.98000 | 31571 ft | 440 kts | 249° |
| 2026-04-22 17:31 | 53.97093 | 52.93133 | 31444 ft | 437 kts | 249° |
| 2026-04-22 17:31 | 53.96101 | 52.88268 | 31308 ft | 440 kts | 249° |
| 2026-04-22 17:31 | 53.95102 | 52.83385 | 31195 ft | 441 kts | 249° |
| 2026-04-22 17:31 | 53.94094 | 52.78461 | 31060 ft | 438 kts | 249° |
| 2026-04-22 17:32 | 53.93107 | 52.73651 | 30921 ft | 440 kts | 249° |
| 2026-04-22 17:32 | 53.92093 | 52.68724 | 30760 ft | 441 kts | 249° |
| 2026-04-22 17:32 | 53.91089 | 52.63851 | 30551 ft | 442 kts | 249° |
| 2026-04-22 17:32 | 53.90079 | 52.58963 | 30345 ft | 441 kts | 249° |
| 2026-04-22 17:33 | 53.89407 | 52.55716 | 30054 ft | 439 kts | 249° |
| 2026-04-22 17:33 | 53.88068 | 52.49265 | 29504 ft | 427 kts | 249° |
| 2026-04-22 17:33 | 53.87094 | 52.44580 | 28992 ft | 422 kts | 249° |
| 2026-04-22 17:33 | 53.86126 | 52.39936 | 28195 ft | 423 kts | 249° |
| 2026-04-22 17:34 | 53.85154 | 52.35292 | 27417 ft | 422 kts | 249° |
| 2026-04-22 17:34 | 53.84178 | 52.30638 | 26739 ft | 415 kts | 249° |
| 2026-04-22 17:34 | 53.83240 | 52.26168 | 25990 ft | 406 kts | 249° |
| 2026-04-22 17:34 | 53.82305 | 52.21712 | 25066 ft | 397 kts | 249° |
| 2026-04-22 17:35 | 53.81398 | 52.17392 | 24105 ft | 388 kts | 249° |
| 2026-04-22 17:35 | 53.80508 | 52.13152 | 23102 ft | 382 kts | 249° |
| 2026-04-22 17:35 | 53.79630 | 52.08972 | 22056 ft | 377 kts | 249° |
| 2026-04-22 17:35 | 53.78774 | 52.04908 | 21049 ft | 372 kts | 249° |
| 2026-04-22 17:36 | 53.77914 | 52.00824 | 20018 ft | 367 kts | 249° |
| 2026-04-22 17:36 | 53.77068 | 51.96817 | 19002 ft | 361 kts | 249° |
| 2026-04-22 17:36 | 53.76245 | 51.92926 | 18004 ft | 355 kts | 249° |
| 2026-04-22 17:36 | 53.75425 | 51.89050 | 17006 ft | 351 kts | 248° |
| 2026-04-22 17:37 | 53.74607 | 51.85234 | 16033 ft | 347 kts | 248° |
| 2026-04-22 17:37 | 53.73786 | 51.81464 | 15134 ft | 340 kts | 248° |
| 2026-04-22 17:37 | 53.72986 | 51.77803 | 14289 ft | 331 kts | 248° |
| 2026-04-22 17:37 | 53.72210 | 51.74198 | 13423 ft | 324 kts | 249° |
| 2026-04-22 17:38 | 53.71463 | 51.70707 | 12593 ft | 318 kts | 248° |
| 2026-04-22 17:38 | 53.70729 | 51.67234 | 11725 ft | 312 kts | 249° |
| 2026-04-22 17:38 | 53.69997 | 51.63846 | 10878 ft | 306 kts | 248° |
| 2026-04-22 17:38 | 53.69270 | 51.60537 | 9933 ft | 305 kts | 249° |
| 2026-04-22 17:39 | 53.68592 | 51.57294 | 9685 ft | 280 kts | 249° |
| 2026-04-22 17:39 | 53.67966 | 51.54344 | 9657 ft | 260 kts | 249° |
| 2026-04-22 17:39 | 53.67189 | 51.48504 | 9187 ft | 257 kts | 270° |
| 2026-04-22 17:40 | 53.67406 | 51.45528 | 8989 ft | 255 kts | 275° |
| 2026-04-22 17:40 | 53.67670 | 51.42581 | 8857 ft | 258 kts | 274° |
| 2026-04-22 17:40 | 53.67895 | 51.39583 | 8723 ft | 256 kts | 273° |
| 2026-04-22 17:40 | 53.68090 | 51.36611 | 8626 ft | 255 kts | 272° |
| 2026-04-22 17:41 | 53.68264 | 51.33651 | 8542 ft | 255 kts | 271° |
| 2026-04-22 17:41 | 53.68422 | 51.30703 | 8452 ft | 254 kts | 270° |
| 2026-04-22 17:41 | 53.68567 | 51.27734 | 8377 ft | 254 kts | 270° |
| 2026-04-22 17:41 | 53.68721 | 51.24774 | 8278 ft | 254 kts | 271° |
| 2026-04-22 17:42 | 53.68885 | 51.21817 | 8177 ft | 255 kts | 271° |
| 2026-04-22 17:42 | 53.69066 | 51.18819 | 8077 ft | 254 kts | 271° |
| 2026-04-22 17:42 | 53.69179 | 51.16870 | 8030 ft | 254 kts | 271° |
| 2026-04-22 17:42 | 53.69376 | 51.12907 | 7870 ft | 253 kts | 270° |
| 2026-04-22 17:43 | 53.69515 | 51.09984 | 7756 ft | 253 kts | 271° |
| 2026-04-22 17:43 | 53.69680 | 51.07047 | 7622 ft | 254 kts | 271° |
| 2026-04-22 17:43 | 53.69853 | 51.04052 | 7543 ft | 253 kts | 270° |
| 2026-04-22 17:43 | 53.70030 | 51.01102 | 7386 ft | 251 kts | 272° |
| 2026-04-22 17:44 | 53.70202 | 50.98208 | 7279 ft | 251 kts | 271° |
| 2026-04-22 17:44 | 53.70358 | 50.95291 | 7191 ft | 249 kts | 270° |
| 2026-04-22 17:44 | 53.70499 | 50.92358 | 7061 ft | 252 kts | 271° |
| 2026-04-22 17:44 | 53.70665 | 50.89425 | 6945 ft | 248 kts | 271° |
| 2026-04-22 17:45 | 53.70828 | 50.86536 | 6843 ft | 248 kts | 271° |
| 2026-04-22 17:45 | 53.70980 | 50.83641 | 6702 ft | 248 kts | 271° |
| 2026-04-22 17:45 | 53.71117 | 50.80837 | 6709 ft | 237 kts | 271° |
| 2026-04-22 17:45 | 53.71268 | 50.78032 | 6696 ft | 241 kts | 269° |
| 2026-04-22 17:46 | 53.71408 | 50.75240 | 6709 ft | 243 kts | 270° |
| 2026-04-22 17:46 | 53.71557 | 50.72420 | 6686 ft | 240 kts | 273° |
| 2026-04-22 17:46 | 53.71724 | 50.69606 | 6697 ft | 240 kts | 271° |
| 2026-04-22 17:46 | 53.71865 | 50.66806 | 6704 ft | 242 kts | 271° |
| 2026-04-22 17:47 | 53.72017 | 50.63969 | 6700 ft | 239 kts | 273° |
| 2026-04-22 17:47 | 53.72504 | 50.61273 | 6696 ft | 248 kts | 297° |
| 2026-04-22 17:47 | 53.73661 | 50.59037 | 6690 ft | 258 kts | 314° |
| 2026-04-22 17:47 | 53.75031 | 50.57093 | 6703 ft | 257 kts | 315° |
| 2026-04-22 17:48 | 53.75935 | 50.55789 | 6682 ft | 256 kts | 315° |
| 2026-04-22 17:48 | 53.77691 | 50.53141 | 6696 ft | 256 kts | 313° |
| 2026-04-22 17:48 | 53.79048 | 50.51143 | 6689 ft | 254 kts | 315° |
| 2026-04-22 17:48 | 53.80368 | 50.49157 | 6665 ft | 258 kts | 313° |
| 2026-04-22 17:49 | 53.81681 | 50.47143 | 6558 ft | 253 kts | 312° |
| 2026-04-22 17:49 | 53.82969 | 50.45176 | 6414 ft | 249 kts | 314° |
| 2026-04-22 17:49 | 53.84239 | 50.43220 | 6257 ft | 243 kts | 311° |
| 2026-04-22 17:49 | 53.85104 | 50.40884 | 6068 ft | 235 kts | 281° |
| 2026-04-22 17:50 | 53.85056 | 50.38204 | 5761 ft | 226 kts | 245° |
| 2026-04-22 17:50 | 53.84141 | 50.36109 | 5509 ft | 223 kts | 221° |
| 2026-04-22 17:50 | 53.82882 | 50.34591 | 5215 ft | 223 kts | 213° |
| 2026-04-22 17:50 | 53.81604 | 50.33067 | 4932 ft | 224 kts | 220° |
| 2026-04-22 17:51 | 53.80487 | 50.31254 | 4635 ft | 223 kts | 226° |
| 2026-04-22 17:51 | 53.79490 | 50.29351 | 4343 ft | 214 kts | 229° |
| 2026-04-22 17:51 | 53.78534 | 50.27478 | 4058 ft | 208 kts | 229° |
| 2026-04-22 17:51 | 53.77600 | 50.25716 | 4016 ft | 201 kts | 227° |
| 2026-04-22 17:52 | 53.76657 | 50.23970 | 3948 ft | 194 kts | 227° |
| 2026-04-22 17:52 | 53.75796 | 50.22343 | 3994 ft | 180 kts | 228° |
| 2026-04-22 17:52 | 53.74972 | 50.20791 | 3974 ft | 179 kts | 227° |
| 2026-04-22 17:52 | 53.74148 | 50.19252 | 3987 ft | 177 kts | 227° |
| 2026-04-22 17:53 | 53.73298 | 50.17704 | 3995 ft | 181 kts | 228° |
| 2026-04-22 17:53 | 53.72437 | 50.16134 | 3995 ft | 184 kts | 228° |
| 2026-04-22 17:53 | 53.71581 | 50.14538 | 3994 ft | 183 kts | 229° |
| 2026-04-22 17:53 | 53.70728 | 50.12922 | 3867 ft | 184 kts | 229° |
| 2026-04-22 17:54 | 53.69912 | 50.11324 | 3592 ft | 181 kts | 229° |
| 2026-04-22 17:54 | 53.69088 | 50.09731 | 3296 ft | 179 kts | 228° |
| 2026-04-22 17:54 | 53.68137 | 50.08378 | 3023 ft | 180 kts | 211° |
| 2026-04-22 17:54 | 53.66927 | 50.07991 | 2979 ft | 183 kts | 172° |
| 2026-04-22 17:55 | 53.66103 | 50.08374 | 3007 ft | 185 kts | 163° |
| 2026-04-22 17:55 | 53.64538 | 50.09269 | 3052 ft | 169 kts | 164° |
| 2026-04-22 17:55 | 53.63393 | 50.09922 | 2816 ft | 175 kts | 162° |
| 2026-04-22 17:55 | 53.62284 | 50.10594 | 2513 ft | 160 kts | 161° |
| 2026-04-22 17:56 | 53.61288 | 50.11198 | 2346 ft | 150 kts | 160° |
| 2026-04-22 17:56 | 53.60297 | 50.11793 | 2165 ft | 151 kts | 160° |
| 2026-04-22 17:56 | 53.59305 | 50.12389 | 1969 ft | 151 kts | 160° |
| 2026-04-22 17:56 | 53.58333 | 50.12972 | 1776 ft | 149 kts | 159° |
| 2026-04-22 17:57 | 53.57350 | 50.13562 | 1589 ft | 149 kts | 159° |
| 2026-04-22 17:57 | 53.56380 | 50.14143 | 1399 ft | 148 kts | 159° |
| 2026-04-22 17:57 | 53.55433 | 50.14711 | 1209 ft | 142 kts | 160° |
| 2026-04-22 17:57 | 53.54520 | 50.15257 | 1044 ft | 140 kts | 160° |
| 2026-04-22 17:58 | 53.53593 | 50.15812 | 860 ft | 139 kts | 160° |
| 2026-04-22 17:58 | 53.52686 | 50.16356 | 692 ft | 139 kts | 159° |
| 2026-04-22 17:58 | 53.51773 | 50.16882 | 519 ft | 138 kts | 159° |
| 2026-04-22 17:58 | 53.50940 | 50.17392 | 486 ft | 110 kts | 159° |
| 2026-04-22 17:59 | 53.50359 | 50.17749 | 486 ft | 72 kts | 160° |
| 2026-04-22 17:59 | 53.49919 | 50.18004 | 486 ft | 66 kts | 160° |
| 2026-04-22 17:59 | 53.49542 | 50.18225 | 486 ft | 42 kts | 163° |
| 2026-04-22 17:59 | 53.49362 | 50.18303 | 486 ft | 24 kts | 186° |
| 2026-04-22 18:00 | 53.49317 | 50.18263 | 486 ft | 21 kts | 217° |
| 2026-04-22 18:00 | 53.49292 | 50.18193 | 486 ft | 0 kts | 252° |
| 2026-04-22 18:01 | 53.49289 | 50.18173 | 486 ft | 7 kts | 256° |
| 2026-04-22 18:01 | 53.49285 | 50.18042 | 486 ft | 11 kts | 282° |
| 2026-04-22 18:01 | 53.49330 | 50.17935 | 486 ft | 11 kts | 336° |
| 2026-04-22 18:01 | 53.49408 | 50.17896 | 486 ft | 11 kts | 349° |
| 2026-04-22 18:02 | 53.49485 | 50.17863 | 486 ft | 11 kts | 347° |
| 2026-04-22 18:02 | 53.49549 | 50.17852 | 486 ft | 2 kts | 343° |
| 2026-04-22 18:02 | 53.49587 | 50.17813 | 486 ft | 26 kts | 333° |
| 2026-04-22 18:02 | 53.49874 | 50.17614 | 486 ft | 50 kts | 338° |
| 2026-04-22 18:03 | 53.50165 | 50.17437 | 486 ft | 42 kts | 338° |
| 2026-04-22 18:03 | 53.50435 | 50.17268 | 486 ft | 40 kts | 343° |
| 2026-04-22 18:03 | 53.50692 | 50.17114 | 486 ft | 30 kts | 342° |
| 2026-04-22 18:03 | 53.50827 | 50.17034 | 486 ft | 17 kts | 331° |
| 2026-04-22 18:04 | 53.50888 | 50.16916 | 486 ft | 13 kts | 302° |
| 2026-04-22 18:04 | 53.50935 | 50.16785 | 486 ft | 13 kts | 303° |
| 2026-04-22 18:04 | 53.50991 | 50.16655 | 486 ft | 13 kts | 292° |
| 2026-04-22 18:04 | 53.51031 | 50.16521 | 486 ft | 12 kts | 300° |
| 2026-04-22 18:05 | 53.51078 | 50.16397 | 486 ft | 12 kts | 298° |
| 2026-04-22 18:05 | 53.51123 | 50.16273 | 486 ft | 12 kts | 302° |
| 2026-04-22 18:05 | 53.51150 | 50.16192 | 486 ft | 6 kts | 290° |
| 2026-04-22 18:05 | 53.51138 | 50.16139 | 486 ft | 4 kts | 196° |
| 2026-04-22 18:06 | 53.51110 | 50.16151 | 486 ft | 4 kts | 163° |
| 2026-04-22 18:06 | 53.51084 | 50.16173 | 486 ft | 4 kts | 150° |
| 2026-04-22 18:06 | 53.51081 | 50.16176 | 486 ft | 0 kts | 151° |